sensor_id;sensor_type;location;lat;lon;timestamp;P1;durP1;ratioP1;P2;durP2;ratioP2
10134;SDS011;5107;48.850;8.924;2022-08-18T00:00:20;7.37;;;5.73;;
10134;SDS011;5107;48.850;8.924;2022-08-18T00:02:47;6.30;;;5.70;;
10134;SDS011;5107;48.850;8.924;2022-08-18T00:05:14;5.97;;;5.37;;
10134;SDS011;5107;48.850;8.924;2022-08-18T00:07:42;6.07;;;5.47;;
10134;SDS011;5107;48.850;8.924;2022-08-18T00:10:09;6.37;;;5.63;;
10134;SDS011;5107;48.850;8.924;2022-08-18T00:12:37;6.57;;;5.97;;
10134;SDS011;5107;48.850;8.924;2022-08-18T00:15:09;6.37;;;5.77;;
10134;SDS011;5107;48.850;8.924;2022-08-18T00:17:40;6.70;;;6.10;;
10134;SDS011;5107;48.850;8.924;2022-08-18T00:20:09;6.70;;;5.97;;
10134;SDS011;5107;48.850;8.924;2022-08-18T00:22:39;6.23;;;5.70;;
10134;SDS011;5107;48.850;8.924;2022-08-18T00:25:07;6.37;;;5.43;;
10134;SDS011;5107;48.850;8.924;2022-08-18T00:27:37;6.63;;;6.03;;
10134;SDS011;5107;48.850;8.924;2022-08-18T00:30:06;6.40;;;5.80;;
10134;SDS011;5107;48.850;8.924;2022-08-18T00:32:40;6.47;;;5.87;;
10134;SDS011;5107;48.850;8.924;2022-08-18T00:35:10;5.93;;;5.33;;
10134;SDS011;5107;48.850;8.924;2022-08-18T00:37:40;6.63;;;5.37;;
10134;SDS011;5107;48.850;8.924;2022-08-18T00:40:09;5.73;;;5.23;;
10134;SDS011;5107;48.850;8.924;2022-08-18T00:42:41;5.83;;;5.33;;
10134;SDS011;5107;48.850;8.924;2022-08-18T00:45:14;6.17;;;5.57;;
10134;SDS011;5107;48.850;8.924;2022-08-18T00:47:44;6.13;;;5.50;;
10134;SDS011;5107;48.850;8.924;2022-08-18T00:50:13;5.67;;;5.17;;
10134;SDS011;5107;48.850;8.924;2022-08-18T00:52:45;5.90;;;5.30;;
10134;SDS011;5107;48.850;8.924;2022-08-18T00:55:26;6.97;;;6.10;;
10134;SDS011;5107;48.850;8.924;2022-08-18T00:57:56;6.63;;;5.93;;
10134;SDS011;5107;48.850;8.924;2022-08-18T01:00:33;7.50;;;5.73;;
10134;SDS011;5107;48.850;8.924;2022-08-18T01:03:01;6.30;;;5.70;;
10134;SDS011;5107;48.850;8.924;2022-08-18T01:05:35;6.37;;;5.73;;
10134;SDS011;5107;48.850;8.924;2022-08-18T01:08:08;6.90;;;6.03;;
10134;SDS011;5107;48.850;8.924;2022-08-18T01:10:39;5.87;;;5.27;;
10134;SDS011;5107;48.850;8.924;2022-08-18T01:13:08;5.97;;;5.37;;
10134;SDS011;5107;48.850;8.924;2022-08-18T01:15:37;6.87;;;6.00;;
10134;SDS011;5107;48.850;8.924;2022-08-18T01:18:06;6.20;;;5.60;;
10134;SDS011;5107;48.850;8.924;2022-08-18T01:21:09;7.53;;;5.87;;
10134;SDS011;5107;48.850;8.924;2022-08-18T01:24:03;6.90;;;5.80;;
10134;SDS011;5107;48.850;8.924;2022-08-18T01:26:35;5.90;;;5.40;;
10134;SDS011;5107;48.850;8.924;2022-08-18T01:29:04;6.37;;;5.80;;
10134;SDS011;5107;48.850;8.924;2022-08-18T01:31:38;6.20;;;5.60;;
10134;SDS011;5107;48.850;8.924;2022-08-18T01:34:08;6.10;;;5.50;;
10134;SDS011;5107;48.850;8.924;2022-08-18T01:36:37;5.90;;;5.40;;
10134;SDS011;5107;48.850;8.924;2022-08-18T01:39:08;6.37;;;5.77;;
10134;SDS011;5107;48.850;8.924;2022-08-18T01:41:38;6.37;;;5.77;;
10134;SDS011;5107;48.850;8.924;2022-08-18T01:44:06;6.47;;;5.87;;
10134;SDS011;5107;48.850;8.924;2022-08-18T01:46:35;6.23;;;5.63;;
10134;SDS011;5107;48.850;8.924;2022-08-18T01:49:05;5.80;;;5.30;;
10134;SDS011;5107;48.850;8.924;2022-08-18T01:51:33;5.77;;;5.27;;
10134;SDS011;5107;48.850;8.924;2022-08-18T01:54:02;6.83;;;5.83;;
10134;SDS011;5107;48.850;8.924;2022-08-18T01:56:30;6.60;;;6.00;;
10134;SDS011;5107;48.850;8.924;2022-08-18T01:58:58;5.83;;;5.33;;
10134;SDS011;5107;48.850;8.924;2022-08-18T02:01:25;6.30;;;5.70;;
10134;SDS011;5107;48.850;8.924;2022-08-18T02:03:54;6.80;;;6.10;;
10134;SDS011;5107;48.850;8.924;2022-08-18T02:06:25;6.37;;;5.77;;
10134;SDS011;5107;48.850;8.924;2022-08-18T02:08:52;6.10;;;5.50;;
10134;SDS011;5107;48.850;8.924;2022-08-18T02:11:19;6.20;;;5.60;;
10134;SDS011;5107;48.850;8.924;2022-08-18T02:13:48;6.43;;;5.77;;
10134;SDS011;5107;48.850;8.924;2022-08-18T02:16:15;6.40;;;5.67;;
10134;SDS011;5107;48.850;8.924;2022-08-18T02:18:42;7.47;;;5.40;;
10134;SDS011;5107;48.850;8.924;2022-08-18T02:21:10;6.37;;;5.73;;
10134;SDS011;5107;48.850;8.924;2022-08-18T02:23:41;6.97;;;6.17;;
10134;SDS011;5107;48.850;8.924;2022-08-18T02:26:11;6.63;;;5.97;;
10134;SDS011;5107;48.850;8.924;2022-08-18T02:28:41;6.73;;;6.13;;
10134;SDS011;5107;48.850;8.924;2022-08-18T02:31:12;6.70;;;6.00;;
10134;SDS011;5107;48.850;8.924;2022-08-18T02:33:42;6.80;;;6.20;;
10134;SDS011;5107;48.850;8.924;2022-08-18T02:36:10;7.03;;;6.33;;
10134;SDS011;5107;48.850;8.924;2022-08-18T02:38:38;7.27;;;6.27;;
10134;SDS011;5107;48.850;8.924;2022-08-18T02:41:07;6.80;;;6.13;;
10134;SDS011;5107;48.850;8.924;2022-08-18T02:43:40;6.87;;;6.17;;
10134;SDS011;5107;48.850;8.924;2022-08-18T02:46:08;6.60;;;5.93;;
10134;SDS011;5107;48.850;8.924;2022-08-18T02:48:36;6.70;;;6.10;;
10134;SDS011;5107;48.850;8.924;2022-08-18T02:51:04;7.83;;;6.20;;
10134;SDS011;5107;48.850;8.924;2022-08-18T02:53:35;6.67;;;6.07;;
10134;SDS011;5107;48.850;8.924;2022-08-18T02:56:04;6.40;;;5.80;;
10134;SDS011;5107;48.850;8.924;2022-08-18T02:58:48;7.03;;;6.17;;
10134;SDS011;5107;48.850;8.924;2022-08-18T03:01:18;6.33;;;5.73;;
10134;SDS011;5107;48.850;8.924;2022-08-18T03:03:49;6.53;;;5.93;;
10134;SDS011;5107;48.850;8.924;2022-08-18T03:06:17;7.27;;;6.33;;
10134;SDS011;5107;48.850;8.924;2022-08-18T03:08:47;7.00;;;6.30;;
10134;SDS011;5107;48.850;8.924;2022-08-18T03:11:16;6.80;;;6.10;;
10134;SDS011;5107;48.850;8.924;2022-08-18T03:13:46;6.70;;;6.10;;
10134;SDS011;5107;48.850;8.924;2022-08-18T03:16:13;6.87;;;6.17;;
10134;SDS011;5107;48.850;8.924;2022-08-18T03:18:41;6.37;;;5.83;;
10134;SDS011;5107;48.850;8.924;2022-08-18T03:21:10;7.10;;;6.40;;
10134;SDS011;5107;48.850;8.924;2022-08-18T03:23:40;7.53;;;6.50;;
10134;SDS011;5107;48.850;8.924;2022-08-18T03:26:09;6.80;;;6.17;;
10134;SDS011;5107;48.850;8.924;2022-08-18T03:28:38;6.80;;;6.10;;
10134;SDS011;5107;48.850;8.924;2022-08-18T03:31:08;7.27;;;6.50;;
10134;SDS011;5107;48.850;8.924;2022-08-18T03:33:38;6.87;;;6.27;;
10134;SDS011;5107;48.850;8.924;2022-08-18T03:36:07;6.83;;;6.17;;
10134;SDS011;5107;48.850;8.924;2022-08-18T03:38:38;7.83;;;6.90;;
10134;SDS011;5107;48.850;8.924;2022-08-18T03:41:07;7.50;;;6.67;;
10134;SDS011;5107;48.850;8.924;2022-08-18T03:43:35;6.80;;;6.20;;
10134;SDS011;5107;48.850;8.924;2022-08-18T03:46:04;7.17;;;6.47;;
10134;SDS011;5107;48.850;8.924;2022-08-18T03:48:35;7.10;;;6.40;;
10134;SDS011;5107;48.850;8.924;2022-08-18T03:51:04;7.17;;;6.30;;
10134;SDS011;5107;48.850;8.924;2022-08-18T03:53:34;6.73;;;6.03;;
10134;SDS011;5107;48.850;8.924;2022-08-18T03:56:05;6.60;;;6.00;;
10134;SDS011;5107;48.850;8.924;2022-08-18T03:58:34;7.23;;;6.53;;
10134;SDS011;5107;48.850;8.924;2022-08-18T04:01:02;6.33;;;5.73;;
10134;SDS011;5107;48.850;8.924;2022-08-18T04:03:29;7.13;;;6.43;;
10134;SDS011;5107;48.850;8.924;2022-08-18T04:05:56;6.60;;;6.00;;
10134;SDS011;5107;48.850;8.924;2022-08-18T04:08:23;7.00;;;6.30;;
10134;SDS011;5107;48.850;8.924;2022-08-18T04:10:51;7.27;;;6.50;;
10134;SDS011;5107;48.850;8.924;2022-08-18T04:13:19;6.90;;;6.30;;
10134;SDS011;5107;48.850;8.924;2022-08-18T04:15:46;7.03;;;6.43;;
10134;SDS011;5107;48.850;8.924;2022-08-18T04:18:13;7.07;;;6.37;;
10134;SDS011;5107;48.850;8.924;2022-08-18T04:20:41;6.13;;;5.63;;
10134;SDS011;5107;48.850;8.924;2022-08-18T04:23:08;6.80;;;6.18;;
10134;SDS011;5107;48.850;8.924;2022-08-18T04:25:36;6.68;;;5.95;;
10134;SDS011;5107;48.850;8.924;2022-08-18T04:28:04;7.23;;;6.53;;
10134;SDS011;5107;48.850;8.924;2022-08-18T04:30:31;6.80;;;6.20;;
10134;SDS011;5107;48.850;8.924;2022-08-18T04:32:59;6.47;;;5.87;;
10134;SDS011;5107;48.850;8.924;2022-08-18T04:35:30;6.45;;;5.85;;
10134;SDS011;5107;48.850;8.924;2022-08-18T04:37:57;6.93;;;6.23;;
10134;SDS011;5107;48.850;8.924;2022-08-18T04:40:25;6.70;;;6.03;;
10134;SDS011;5107;48.850;8.924;2022-08-18T04:42:53;6.60;;;6.00;;
10134;SDS011;5107;48.850;8.924;2022-08-18T04:45:22;6.60;;;6.00;;
10134;SDS011;5107;48.850;8.924;2022-08-18T04:47:49;9.55;;;7.10;;
10134;SDS011;5107;48.850;8.924;2022-08-18T04:50:17;7.00;;;6.30;;
10134;SDS011;5107;48.850;8.924;2022-08-18T04:52:44;6.67;;;6.07;;
10134;SDS011;5107;48.850;8.924;2022-08-18T04:55:29;7.10;;;6.40;;
10134;SDS011;5107;48.850;8.924;2022-08-18T04:57:56;6.70;;;6.10;;
10134;SDS011;5107;48.850;8.924;2022-08-18T05:00:25;7.03;;;6.43;;
10134;SDS011;5107;48.850;8.924;2022-08-18T05:02:52;6.73;;;6.13;;
10134;SDS011;5107;48.850;8.924;2022-08-18T05:05:21;7.23;;;6.53;;
10134;SDS011;5107;48.850;8.924;2022-08-18T05:07:48;6.60;;;6.00;;
10134;SDS011;5107;48.850;8.924;2022-08-18T05:10:15;7.00;;;6.30;;
10134;SDS011;5107;48.850;8.924;2022-08-18T05:12:45;8.03;;;7.23;;
10134;SDS011;5107;48.850;8.924;2022-08-18T05:15:13;15.70;;;12.20;;
10134;SDS011;5107;48.850;8.924;2022-08-18T05:17:43;8.73;;;7.63;;
10134;SDS011;5107;48.850;8.924;2022-08-18T05:20:10;15.60;;;13.47;;
10134;SDS011;5107;48.850;8.924;2022-08-18T05:22:38;7.57;;;6.87;;
10134;SDS011;5107;48.850;8.924;2022-08-18T05:25:08;7.37;;;6.67;;
10134;SDS011;5107;48.850;8.924;2022-08-18T05:27:38;6.37;;;5.77;;
10134;SDS011;5107;48.850;8.924;2022-08-18T05:30:08;6.70;;;6.10;;
10134;SDS011;5107;48.850;8.924;2022-08-18T05:32:38;7.80;;;7.00;;
10134;SDS011;5107;48.850;8.924;2022-08-18T05:35:09;7.63;;;6.90;;
10134;SDS011;5107;48.850;8.924;2022-08-18T05:37:42;6.83;;;6.23;;
10134;SDS011;5107;48.850;8.924;2022-08-18T05:40:33;7.60;;;6.90;;
10134;SDS011;5107;48.850;8.924;2022-08-18T05:43:01;6.60;;;6.00;;
10134;SDS011;5107;48.850;8.924;2022-08-18T05:45:30;7.27;;;6.60;;
10134;SDS011;5107;48.850;8.924;2022-08-18T05:47:58;7.50;;;6.80;;
10134;SDS011;5107;48.850;8.924;2022-08-18T05:50:27;6.60;;;5.97;;
10134;SDS011;5107;48.850;8.924;2022-08-18T05:53:00;6.80;;;6.18;;
10134;SDS011;5107;48.850;8.924;2022-08-18T05:55:34;6.90;;;6.20;;
10134;SDS011;5107;48.850;8.924;2022-08-18T05:58:23;6.50;;;5.90;;
10134;SDS011;5107;48.850;8.924;2022-08-18T06:00:56;6.15;;;5.65;;
10134;SDS011;5107;48.850;8.924;2022-08-18T06:03:29;6.78;;;5.78;;
10134;SDS011;5107;48.850;8.924;2022-08-18T06:06:04;6.20;;;5.60;;
10134;SDS011;5107;48.850;8.924;2022-08-18T06:08:39;5.95;;;5.35;;
10134;SDS011;5107;48.850;8.924;2022-08-18T06:11:12;5.50;;;5.00;;
10134;SDS011;5107;48.850;8.924;2022-08-18T06:13:39;5.22;;;4.80;;
10134;SDS011;5107;48.850;8.924;2022-08-18T06:16:08;5.38;;;4.88;;
10134;SDS011;5107;48.850;8.924;2022-08-18T06:18:44;5.68;;;5.18;;
10134;SDS011;5107;48.850;8.924;2022-08-18T06:21:24;5.25;;;4.75;;
10134;SDS011;5107;48.850;8.924;2022-08-18T06:24:10;5.13;;;4.63;;
10134;SDS011;5107;48.850;8.924;2022-08-18T06:26:47;4.93;;;4.53;;
10134;SDS011;5107;48.850;8.924;2022-08-18T06:29:30;5.22;;;4.72;;
10134;SDS011;5107;48.850;8.924;2022-08-18T06:32:15;5.97;;;5.00;;
10134;SDS011;5107;48.850;8.924;2022-08-18T06:34:58;4.80;;;4.30;;
10134;SDS011;5107;48.850;8.924;2022-08-18T06:37:41;5.57;;;5.18;;
10134;SDS011;5107;48.850;8.924;2022-08-18T06:40:35;5.38;;;4.88;;
10134;SDS011;5107;48.850;8.924;2022-08-18T06:43:02;6.00;;;4.47;;
10134;SDS011;5107;48.850;8.924;2022-08-18T06:45:35;5.13;;;4.72;;
10134;SDS011;5107;48.850;8.924;2022-08-18T06:48:05;5.30;;;4.82;;
10134;SDS011;5107;48.850;8.924;2022-08-18T06:50:39;5.22;;;4.72;;
10134;SDS011;5107;48.850;8.924;2022-08-18T06:53:15;5.15;;;4.65;;
10134;SDS011;5107;48.850;8.924;2022-08-18T06:55:43;4.85;;;4.45;;
10134;SDS011;5107;48.850;8.924;2022-08-18T06:58:20;5.53;;;5.03;;
10134;SDS011;5107;48.850;8.924;2022-08-18T07:00:54;5.13;;;4.72;;
10134;SDS011;5107;48.850;8.924;2022-08-18T07:03:39;5.30;;;4.90;;
10134;SDS011;5107;48.850;8.924;2022-08-18T07:06:10;5.50;;;5.00;;
10134;SDS011;5107;48.850;8.924;2022-08-18T07:09:16;5.18;;;4.70;;
10134;SDS011;5107;48.850;8.924;2022-08-18T07:11:56;5.45;;;4.95;;
10134;SDS011;5107;48.850;8.924;2022-08-18T07:14:27;5.68;;;5.13;;
10134;SDS011;5107;48.850;8.924;2022-08-18T07:17:07;5.60;;;5.10;;
10134;SDS011;5107;48.850;8.924;2022-08-18T07:19:36;6.30;;;5.70;;
10134;SDS011;5107;48.850;8.924;2022-08-18T07:22:06;6.75;;;6.15;;
10134;SDS011;5107;48.850;8.924;2022-08-18T07:24:40;6.53;;;5.93;;
10134;SDS011;5107;48.850;8.924;2022-08-18T07:27:10;6.43;;;5.82;;
10134;SDS011;5107;48.850;8.924;2022-08-18T07:29:57;6.60;;;5.90;;
10134;SDS011;5107;48.850;8.924;2022-08-18T07:32:28;7.28;;;6.40;;
10134;SDS011;5107;48.850;8.924;2022-08-18T07:35:01;7.57;;;6.83;;
10134;SDS011;5107;48.850;8.924;2022-08-18T07:37:34;6.83;;;6.23;;
10134;SDS011;5107;48.850;8.924;2022-08-18T07:40:09;7.10;;;6.33;;
10134;SDS011;5107;48.850;8.924;2022-08-18T07:42:46;7.27;;;6.40;;
10134;SDS011;5107;48.850;8.924;2022-08-18T07:45:21;6.82;;;6.20;;
10134;SDS011;5107;48.850;8.924;2022-08-18T07:47:56;7.67;;;6.47;;
10134;SDS011;5107;48.850;8.924;2022-08-18T07:50:28;7.83;;;7.00;;
10134;SDS011;5107;48.850;8.924;2022-08-18T07:53:06;7.67;;;6.90;;
10134;SDS011;5107;48.850;8.924;2022-08-18T07:55:45;6.60;;;6.00;;
10134;SDS011;5107;48.850;8.924;2022-08-18T07:58:23;7.67;;;6.80;;
10134;SDS011;5107;48.850;8.924;2022-08-18T08:00:57;8.23;;;7.37;;
10134;SDS011;5107;48.850;8.924;2022-08-18T08:03:39;7.30;;;6.60;;
10134;SDS011;5107;48.850;8.924;2022-08-18T08:06:18;7.17;;;6.50;;
10134;SDS011;5107;48.850;8.924;2022-08-18T08:09:00;7.43;;;6.63;;
10134;SDS011;5107;48.850;8.924;2022-08-18T08:11:40;8.13;;;6.70;;
10134;SDS011;5107;48.850;8.924;2022-08-18T08:14:22;7.17;;;6.47;;
10134;SDS011;5107;48.850;8.924;2022-08-18T08:17:03;6.87;;;6.27;;
10134;SDS011;5107;48.850;8.924;2022-08-18T08:19:48;7.13;;;6.43;;
10134;SDS011;5107;48.850;8.924;2022-08-18T08:22:37;7.45;;;6.72;;
10134;SDS011;5107;48.850;8.924;2022-08-18T08:25:12;7.38;;;6.63;;
10134;SDS011;5107;48.850;8.924;2022-08-18T08:27:52;6.57;;;5.88;;
10134;SDS011;5107;48.850;8.924;2022-08-18T08:30:35;7.55;;;6.88;;
10134;SDS011;5107;48.850;8.924;2022-08-18T08:33:13;7.45;;;6.70;;
10134;SDS011;5107;48.850;8.924;2022-08-18T08:35:51;7.20;;;6.57;;
10134;SDS011;5107;48.850;8.924;2022-08-18T08:38:37;8.05;;;6.78;;
10134;SDS011;5107;48.850;8.924;2022-08-18T08:41:12;7.95;;;7.25;;
10134;SDS011;5107;48.850;8.924;2022-08-18T08:43:48;7.55;;;6.85;;
10134;SDS011;5107;48.850;8.924;2022-08-18T08:46:23;7.13;;;6.53;;
10134;SDS011;5107;48.850;8.924;2022-08-18T08:48:55;7.30;;;6.70;;
10134;SDS011;5107;48.850;8.924;2022-08-18T08:51:32;8.18;;;7.38;;
10134;SDS011;5107;48.850;8.924;2022-08-18T08:54:04;8.30;;;7.43;;
10134;SDS011;5107;48.850;8.924;2022-08-18T08:56:41;9.15;;;8.00;;
10134;SDS011;5107;48.850;8.924;2022-08-18T08:59:15;9.45;;;7.65;;
10134;SDS011;5107;48.850;8.924;2022-08-18T09:01:47;8.40;;;7.60;;
10134;SDS011;5107;48.850;8.924;2022-08-18T09:04:30;8.30;;;7.30;;
10134;SDS011;5107;48.850;8.924;2022-08-18T09:07:16;8.82;;;8.02;;
10134;SDS011;5107;48.850;8.924;2022-08-18T09:10:06;9.40;;;8.50;;
10134;SDS011;5107;48.850;8.924;2022-08-18T09:13:08;9.40;;;7.82;;
10134;SDS011;5107;48.850;8.924;2022-08-18T09:16:06;9.05;;;8.15;;
10134;SDS011;5107;48.850;8.924;2022-08-18T09:18:58;8.77;;;7.97;;
10134;SDS011;5107;48.850;8.924;2022-08-18T09:21:42;8.73;;;7.82;;
10134;SDS011;5107;48.850;8.924;2022-08-18T09:24:18;9.07;;;7.78;;
10134;SDS011;5107;48.850;8.924;2022-08-18T09:26:51;9.32;;;8.43;;
10134;SDS011;5107;48.850;8.924;2022-08-18T09:29:47;8.05;;;7.25;;
10134;SDS011;5107;48.850;8.924;2022-08-18T09:35:29;8.20;;;7.50;;
10134;SDS011;5107;48.850;8.924;2022-08-18T09:38:13;7.78;;;7.10;;
10134;SDS011;5107;48.850;8.924;2022-08-18T09:41:04;8.23;;;7.43;;
10134;SDS011;5107;48.850;8.924;2022-08-18T09:43:56;9.57;;;8.68;;
10134;SDS011;5107;48.850;8.924;2022-08-18T09:46:52;8.68;;;7.78;;
10134;SDS011;5107;48.850;8.924;2022-08-18T10:01:32;8.88;;;8.18;;
10134;SDS011;5107;48.850;8.924;2022-08-18T10:10:00;9.60;;;8.70;;
10134;SDS011;5107;48.850;8.924;2022-08-18T10:12:41;9.02;;;8.13;;
10134;SDS011;5107;48.850;8.924;2022-08-18T10:15:37;9.68;;;8.73;;
10134;SDS011;5107;48.850;8.924;2022-08-18T10:18:25;8.57;;;7.78;;
10134;SDS011;5107;48.850;8.924;2022-08-18T10:21:17;9.15;;;8.30;;
10134;SDS011;5107;48.850;8.924;2022-08-18T10:23:54;9.48;;;8.52;;
10134;SDS011;5107;48.850;8.924;2022-08-18T10:32:34;9.73;;;7.88;;
10134;SDS011;5107;48.850;8.924;2022-08-18T10:35:05;8.80;;;8.10;;
10134;SDS011;5107;48.850;8.924;2022-08-18T10:41:20;8.52;;;7.72;;
10134;SDS011;5107;48.850;8.924;2022-08-18T10:43:53;8.65;;;7.82;;
10134;SDS011;5107;48.850;8.924;2022-08-18T10:46:23;9.25;;;8.35;;
10134;SDS011;5107;48.850;8.924;2022-08-18T10:49:00;10.35;;;9.18;;
10134;SDS011;5107;48.850;8.924;2022-08-18T10:55:06;8.55;;;7.78;;
10134;SDS011;5107;48.850;8.924;2022-08-18T10:57:58;9.43;;;8.57;;
10134;SDS011;5107;48.850;8.924;2022-08-18T11:00:49;9.63;;;8.80;;
10134;SDS011;5107;48.850;8.924;2022-08-18T11:03:32;9.60;;;8.70;;
10134;SDS011;5107;48.850;8.924;2022-08-18T11:06:15;11.20;;;10.20;;
10134;SDS011;5107;48.850;8.924;2022-08-18T11:08:46;11.02;;;10.05;;
10134;SDS011;5107;48.850;8.924;2022-08-18T11:11:19;9.05;;;8.25;;
10134;SDS011;5107;48.850;8.924;2022-08-18T11:13:55;9.43;;;8.52;;
10134;SDS011;5107;48.850;8.924;2022-08-18T11:16:37;9.65;;;8.75;;
10134;SDS011;5107;48.850;8.924;2022-08-18T11:19:16;9.07;;;8.27;;
10134;SDS011;5107;48.850;8.924;2022-08-18T11:21:47;9.57;;;8.68;;
10134;SDS011;5107;48.850;8.924;2022-08-18T11:24:16;9.15;;;8.32;;
10134;SDS011;5107;48.850;8.924;2022-08-18T11:26:48;8.80;;;8.00;;
10134;SDS011;5107;48.850;8.924;2022-08-18T11:29:24;9.90;;;9.00;;
10134;SDS011;5107;48.850;8.924;2022-08-18T11:32:00;8.60;;;7.78;;
10134;SDS011;5107;48.850;8.924;2022-08-18T11:34:35;9.27;;;8.38;;
10134;SDS011;5107;48.850;8.924;2022-08-18T11:37:07;9.00;;;8.20;;
10134;SDS011;5107;48.850;8.924;2022-08-18T11:39:46;8.70;;;7.88;;
10134;SDS011;5107;48.850;8.924;2022-08-18T11:42:17;9.40;;;8.50;;
10134;SDS011;5107;48.850;8.924;2022-08-18T11:44:55;9.05;;;8.20;;
10134;SDS011;5107;48.850;8.924;2022-08-18T11:47:47;8.95;;;8.05;;
10134;SDS011;5107;48.850;8.924;2022-08-18T11:50:27;9.27;;;8.40;;
10134;SDS011;5107;48.850;8.924;2022-08-18T11:53:10;9.00;;;8.15;;
10134;SDS011;5107;48.850;8.924;2022-08-18T11:55:43;8.38;;;7.68;;
10134;SDS011;5107;48.850;8.924;2022-08-18T11:58:10;11.23;;;9.02;;
10134;SDS011;5107;48.850;8.924;2022-08-18T12:00:58;8.63;;;7.93;;
10134;SDS011;5107;48.850;8.924;2022-08-18T12:03:28;8.40;;;7.70;;
10134;SDS011;5107;48.850;8.924;2022-08-18T12:06:10;9.32;;;8.52;;
10134;SDS011;5107;48.850;8.924;2022-08-18T12:08:50;8.73;;;7.93;;
10134;SDS011;5107;48.850;8.924;2022-08-18T12:11:22;9.38;;;8.52;;
10134;SDS011;5107;48.850;8.924;2022-08-18T12:13:56;9.25;;;8.45;;
10134;SDS011;5107;48.850;8.924;2022-08-18T12:16:34;9.25;;;8.35;;
10134;SDS011;5107;48.850;8.924;2022-08-18T12:19:06;8.85;;;8.05;;
10134;SDS011;5107;48.850;8.924;2022-08-18T12:21:37;9.23;;;8.43;;
10134;SDS011;5107;48.850;8.924;2022-08-18T12:24:06;9.00;;;8.10;;
10134;SDS011;5107;48.850;8.924;2022-08-18T12:26:44;9.30;;;8.40;;
10134;SDS011;5107;48.850;8.924;2022-08-18T12:29:11;9.50;;;8.60;;
10134;SDS011;5107;48.850;8.924;2022-08-18T12:31:40;9.13;;;8.32;;
10134;SDS011;5107;48.850;8.924;2022-08-18T12:34:07;8.80;;;8.10;;
10134;SDS011;5107;48.850;8.924;2022-08-18T12:36:34;8.90;;;8.05;;
10134;SDS011;5107;48.850;8.924;2022-08-18T12:39:02;8.10;;;7.40;;
10134;SDS011;5107;48.850;8.924;2022-08-18T12:41:30;8.50;;;7.70;;
10134;SDS011;5107;48.850;8.924;2022-08-18T12:43:57;8.85;;;6.65;;
10134;SDS011;5107;48.850;8.924;2022-08-18T12:46:24;7.43;;;6.68;;
10134;SDS011;5107;48.850;8.924;2022-08-18T12:48:53;9.20;;;7.53;;
10134;SDS011;5107;48.850;8.924;2022-08-18T12:51:20;7.53;;;6.85;;
10134;SDS011;5107;48.850;8.924;2022-08-18T12:53:48;7.13;;;6.50;;
10134;SDS011;5107;48.850;8.924;2022-08-18T12:56:17;7.80;;;7.10;;
10134;SDS011;5107;48.850;8.924;2022-08-18T12:58:48;8.05;;;7.35;;
10134;SDS011;5107;48.850;8.924;2022-08-18T13:01:16;7.63;;;6.90;;
10134;SDS011;5107;48.850;8.924;2022-08-18T13:03:44;7.03;;;6.43;;
10134;SDS011;5107;48.850;8.924;2022-08-18T13:06:12;7.68;;;6.97;;
10134;SDS011;5107;48.850;8.924;2022-08-18T13:08:40;8.63;;;7.93;;
10134;SDS011;5107;48.850;8.924;2022-08-18T13:11:07;7.65;;;6.93;;
10134;SDS011;5107;48.850;8.924;2022-08-18T13:13:35;7.80;;;7.10;;
10134;SDS011;5107;48.850;8.924;2022-08-18T13:16:04;7.80;;;7.10;;
10134;SDS011;5107;48.850;8.924;2022-08-18T13:18:32;7.30;;;6.60;;
10134;SDS011;5107;48.850;8.924;2022-08-18T13:21:00;7.35;;;6.75;;
10134;SDS011;5107;48.850;8.924;2022-08-18T13:23:33;7.07;;;6.38;;
10134;SDS011;5107;48.850;8.924;2022-08-18T13:26:00;7.25;;;6.65;;
10134;SDS011;5107;48.850;8.924;2022-08-18T13:28:31;6.90;;;6.30;;
10134;SDS011;5107;48.850;8.924;2022-08-18T13:30:59;7.20;;;6.55;;
10134;SDS011;5107;48.850;8.924;2022-08-18T13:33:27;6.70;;;6.07;;
10134;SDS011;5107;48.850;8.924;2022-08-18T13:35:54;6.90;;;6.20;;
10134;SDS011;5107;48.850;8.924;2022-08-18T13:38:22;6.95;;;6.30;;
10134;SDS011;5107;48.850;8.924;2022-08-18T13:40:52;6.88;;;6.38;;
10134;SDS011;5107;48.850;8.924;2022-08-18T13:43:22;6.78;;;6.28;;
10134;SDS011;5107;48.850;8.924;2022-08-18T13:45:55;7.40;;;6.80;;
10134;SDS011;5107;48.850;8.924;2022-08-18T13:48:22;7.07;;;6.47;;
10134;SDS011;5107;48.850;8.924;2022-08-18T13:50:51;6.60;;;6.00;;
10134;SDS011;5107;48.850;8.924;2022-08-18T13:53:19;6.80;;;6.20;;
10134;SDS011;5107;48.850;8.924;2022-08-18T13:55:47;7.07;;;6.38;;
10134;SDS011;5107;48.850;8.924;2022-08-18T13:58:16;6.72;;;6.13;;
10134;SDS011;5107;48.850;8.924;2022-08-18T14:00:44;6.95;;;6.25;;
10134;SDS011;5107;48.850;8.924;2022-08-18T14:03:21;7.25;;;6.65;;
10134;SDS011;5107;48.850;8.924;2022-08-18T14:05:48;7.72;;;7.00;;
10134;SDS011;5107;48.850;8.924;2022-08-18T14:08:17;6.50;;;5.90;;
10134;SDS011;5107;48.850;8.924;2022-08-18T14:10:45;7.38;;;6.72;;
10134;SDS011;5107;48.850;8.924;2022-08-18T14:13:16;6.72;;;6.15;;
10134;SDS011;5107;48.850;8.924;2022-08-18T14:15:44;7.47;;;6.78;;
10134;SDS011;5107;48.850;8.924;2022-08-18T14:18:12;7.22;;;6.63;;
10134;SDS011;5107;48.850;8.924;2022-08-18T14:20:39;7.55;;;6.95;;
10134;SDS011;5107;48.850;8.924;2022-08-18T14:23:23;7.90;;;7.20;;
10134;SDS011;5107;48.850;8.924;2022-08-18T14:26:04;7.40;;;6.75;;
10134;SDS011;5107;48.850;8.924;2022-08-18T14:28:50;7.57;;;6.88;;
10134;SDS011;5107;48.850;8.924;2022-08-18T14:31:18;7.03;;;6.53;;
10134;SDS011;5107;48.850;8.924;2022-08-18T14:33:45;7.20;;;6.60;;
10134;SDS011;5107;48.850;8.924;2022-08-18T14:36:12;6.80;;;6.20;;
10134;SDS011;5107;48.850;8.924;2022-08-18T14:38:40;6.80;;;6.20;;
10134;SDS011;5107;48.850;8.924;2022-08-18T14:41:09;6.82;;;6.15;;
10134;SDS011;5107;48.850;8.924;2022-08-18T14:43:39;7.25;;;6.65;;
10134;SDS011;5107;48.850;8.924;2022-08-18T14:46:10;6.80;;;6.30;;
10134;SDS011;5107;48.850;8.924;2022-08-18T14:48:38;7.28;;;6.60;;
10134;SDS011;5107;48.850;8.924;2022-08-18T14:51:06;7.03;;;6.32;;
10134;SDS011;5107;48.850;8.924;2022-08-18T14:53:35;7.07;;;6.47;;
10134;SDS011;5107;48.850;8.924;2022-08-18T14:56:03;6.60;;;6.00;;
10134;SDS011;5107;48.850;8.924;2022-08-18T14:58:32;7.10;;;6.53;;
10134;SDS011;5107;48.850;8.924;2022-08-18T15:01:01;7.47;;;6.88;;
10134;SDS011;5107;48.850;8.924;2022-08-18T15:03:33;6.88;;;6.18;;
10134;SDS011;5107;48.850;8.924;2022-08-18T15:06:03;7.38;;;6.68;;
10134;SDS011;5107;48.850;8.924;2022-08-18T15:08:32;7.32;;;6.70;;
10134;SDS011;5107;48.850;8.924;2022-08-18T15:11:00;7.45;;;6.78;;
10134;SDS011;5107;48.850;8.924;2022-08-18T15:13:30;7.03;;;6.43;;
10134;SDS011;5107;48.850;8.924;2022-08-18T15:15:58;7.25;;;6.55;;
10134;SDS011;5107;48.850;8.924;2022-08-18T15:18:26;7.50;;;6.90;;
10134;SDS011;5107;48.850;8.924;2022-08-18T15:20:55;7.20;;;6.60;;
10134;SDS011;5107;48.850;8.924;2022-08-18T15:23:40;8.32;;;7.53;;
10134;SDS011;5107;48.850;8.924;2022-08-18T15:26:24;7.78;;;7.10;;
10134;SDS011;5107;48.850;8.924;2022-08-18T15:28:52;7.72;;;7.03;;
10134;SDS011;5107;48.850;8.924;2022-08-18T15:31:19;8.50;;;7.80;;
10134;SDS011;5107;48.850;8.924;2022-08-18T15:33:46;7.75;;;7.05;;
10134;SDS011;5107;48.850;8.924;2022-08-18T15:36:15;7.95;;;7.15;;
10134;SDS011;5107;48.850;8.924;2022-08-18T15:38:45;7.82;;;7.13;;
10134;SDS011;5107;48.850;8.924;2022-08-18T15:41:26;7.90;;;7.30;;
10134;SDS011;5107;48.850;8.924;2022-08-18T15:43:58;7.32;;;6.63;;
10134;SDS011;5107;48.850;8.924;2022-08-18T15:46:27;7.55;;;6.85;;
10134;SDS011;5107;48.850;8.924;2022-08-18T15:48:56;7.47;;;6.88;;
10134;SDS011;5107;48.850;8.924;2022-08-18T15:51:25;7.82;;;7.13;;
10134;SDS011;5107;48.850;8.924;2022-08-18T15:53:52;8.48;;;7.68;;
10134;SDS011;5107;48.850;8.924;2022-08-18T15:56:20;7.70;;;7.00;;
10134;SDS011;5107;48.850;8.924;2022-08-18T15:58:50;8.35;;;7.55;;
10134;SDS011;5107;48.850;8.924;2022-08-18T16:01:18;7.43;;;6.72;;
10134;SDS011;5107;48.850;8.924;2022-08-18T16:03:46;7.47;;;6.88;;
10134;SDS011;5107;48.850;8.924;2022-08-18T16:06:16;6.82;;;6.32;;
10134;SDS011;5107;48.850;8.924;2022-08-18T16:08:49;7.13;;;6.43;;